^^
Your Local Weather - Clay, NY Station Historical Data
Daily Summary for March 4, 2017 Units:  Metric    English   Both
« Previous Day
Next Day »
Daily Weekly Monthly Yearly Custom
  High: Low: Average:
Temperature: -8.5 °C -13.6 °C -10.3 °C
Dew Point: -11.9 °C -18.9 °C -16.3 °C
Humidity: 82% 47% 62%
Wind Speed: 12.9km/h 0km/h 5.3km/h
Wind Gust: 24.1km/h - -
Wind- - WNW
Pressure: 1039.8 hPa 1031.7 hPa -
Precipitation: 0 mm    
Historical Graphs
 
 
Tabular Data for March 4, 2017
Time Temperature Dew Point Pressure Wind Wind Speed Wind Gust Humidity Rainfall Rate (Hourly) solar
00:04 -9 °C -16.8 °C 1031.7 hPa NNW 6.4 km/h 8 km/h 53% 0 mm 0 W/m2
00:09 -9.1 °C -16.9 °C 1031.7 hPa NW 4.8 km/h 4.8 km/h 53% 0 mm 0 W/m2
00:16 -9.1 °C -16.5 °C 1032.1 hPa NW 6.4 km/h 12.9 km/h 55% 0 mm 0 W/m2
00:22 -9.1 °C -16.1 °C 1031.7 hPa NW 6.4 km/h 6.4 km/h 57% 0 mm 0 W/m2
00:28 -9.2 °C -16.1 °C 1032.1 hPa NW 4.8 km/h 11.3 km/h 57% 0 mm 0 W/m2
00:33 -9.1 °C -16.1 °C 1032.1 hPa NNW 4.8 km/h 6.4 km/h 57% 0 mm 0 W/m2
00:39 -9.1 °C -16.4 °C 1032.1 hPa NNW 6.4 km/h 11.3 km/h 55% 0 mm 0 W/m2
00:45 -9.1 °C -16.4 °C 1032.1 hPa NW 8 km/h 11.3 km/h 55% 0 mm 0 W/m2
00:52 -9.1 °C -16.2 °C 1032.1 hPa NW 4.8 km/h 8 km/h 56% 0 mm 0 W/m2
00:58 -9.1 °C -16.5 °C 1032.4 hPa NW 4.8 km/h 12.9 km/h 55% 0 mm 0 W/m2
01:03 -9.2 °C -16.8 °C 1032.4 hPa NNW 4.8 km/h 8 km/h 54% 0 mm 0 W/m2
01:09 -9.3 °C -16.9 °C 1032.4 hPa North 4.8 km/h 11.3 km/h 54% 0 mm 0 W/m2
01:15 -9.3 °C -16.9 °C 1032.4 hPa NNW 6.4 km/h 11.3 km/h 54% 0 mm 0 W/m2
01:22 -9.4 °C -16.8 °C 1032.4 hPa NW 4.8 km/h 4.8 km/h 55% 0 mm 0 W/m2
01:28 -9.4 °C -17.1 °C 1032.4 hPa NNW 6.4 km/h 11.3 km/h 54% 0 mm 0 W/m2
01:34 -9.4 °C -17.1 °C 1032.4 hPa NNW 8 km/h 11.3 km/h 54% 0 mm 0 W/m2
01:39 -9.5 °C -16.9 °C 1032.1 hPa NW 4.8 km/h 4.8 km/h 55% 0 mm 0 W/m2
01:45 -9.6 °C -17.2 °C 1032.1 hPa North 4.8 km/h 14.5 km/h 54% 0 mm 0 W/m2
01:52 -9.6 °C -16.8 °C 1032.1 hPa NNW 3.2 km/h 4.8 km/h 56% 0 mm 0 W/m2
01:58 -9.7 °C -17.1 °C 1032.1 hPa NW 3.2 km/h 4.8 km/h 55% 0 mm 0 W/m2
02:03 -9.6 °C -17.2 °C 1032.1 hPa NW 4.8 km/h 6.4 km/h 54% 0 mm 0 W/m2
02:10 -9.6 °C -16.9 °C 1032.1 hPa NW 4.8 km/h 4.8 km/h 55% 0 mm 0 W/m2
02:15 -9.6 °C -16.7 °C 1032.1 hPa NNW 3.2 km/h 4.8 km/h 56% 0 mm 0 W/m2
02:22 -9.6 °C -16.9 °C 1032.1 hPa NW 3.2 km/h 6.4 km/h 55% 0 mm 0 W/m2
02:28 -9.5 °C -17.1 °C 1032.1 hPa WNW 3.2 km/h 6.4 km/h 54% 0 mm 0 W/m2
02:33 -9.6 °C -16.9 °C 1032.1 hPa NW 3.2 km/h 4.8 km/h 55% 0 mm 0 W/m2
02:39 -9.6 °C -17 °C 1032.1 hPa NW 3.2 km/h 3.2 km/h 55% 0 mm 0 W/m2
02:46 -9.6 °C -16.8 °C 1032.1 hPa WNW 1.6 km/h 4.8 km/h 56% 0 mm 0 W/m2
02:52 -9.7 °C -16.6 °C 1032.1 hPa NNW 4.8 km/h 4.8 km/h 57% 0 mm 0 W/m2
02:58 -9.7 °C -16.4 °C 1032.1 hPa North 3.2 km/h 6.4 km/h 58% 0 mm 0 W/m2
03:03 -9.8 °C -16.3 °C 1031.7 hPa North 4.8 km/h 8 km/h 59% 0 mm 0 W/m2
03:10 -9.8 °C -16.3 °C 1032.1 hPa NNW 4.8 km/h 8 km/h 59% 0 mm 0 W/m2
03:16 -9.8 °C -16.8 °C 1031.7 hPa NW 4.8 km/h 8 km/h 57% 0 mm 0 W/m2
03:22 -9.8 °C -16.8 °C 1031.7 hPa NW 3.2 km/h 3.2 km/h 57% 0 mm 0 W/m2
03:28 -9.8 °C -16.8 °C 1032.1 hPa NW 1.6 km/h 3.2 km/h 57% 0 mm 0 W/m2
03:33 -9.8 °C -16.8 °C 1032.1 hPa North 1.6 km/h 8 km/h 57% 0 mm 0 W/m2
03:39 -9.8 °C -17 °C 1032.1 hPa NNW 3.2 km/h 3.2 km/h 56% 0 mm 0 W/m2
03:46 -9.8 °C -17.3 °C 1032.1 hPa NNW 4.8 km/h 6.4 km/h 54% 0 mm 0 W/m2
03:52 -9.7 °C -17.3 °C 1032.1 hPa NNW 6.4 km/h 6.4 km/h 54% 0 mm 0 W/m2
03:59 -9.7 °C -16.9 °C 1032.1 hPa NW 3.2 km/h 3.2 km/h 56% 0 mm 0 W/m2
04:05 -9.7 °C -17.1 °C 1032.1 hPa NNW 3.2 km/h 4.8 km/h 55% 0 mm 0 W/m2
04:12 -9.7 °C -16.9 °C 1032.1 hPa NNW 1.6 km/h 3.2 km/h 56% 0 mm 0 W/m2
04:18 -9.7 °C -16.7 °C 1032.1 hPa NNW 1.6 km/h 3.2 km/h 57% 0 mm 0 W/m2
04:23 -9.7 °C -16.6 °C 1032.1 hPa NNW 1.6 km/h 3.2 km/h 57% 0 mm 0 W/m2
04:29 -9.7 °C -16.4 °C 1032.1 hPa NNW 3.2 km/h 3.2 km/h 58% 0 mm 0 W/m2
04:36 -9.7 °C -16 °C 1032.1 hPa NNW 3.2 km/h 4.8 km/h 60% 0 mm 0 W/m2
04:42 -9.7 °C -15.6 °C 1032.1 hPa NW 3.2 km/h 6.4 km/h 62% 0 mm 0 W/m2
04:48 -9.7 °C -15.3 °C 1032.1 hPa WNW 4.8 km/h 6.4 km/h 64% 0 mm 0 W/m2
04:53 -9.7 °C -14.9 °C 1032.1 hPa NNW 4.8 km/h 6.4 km/h 66% 0 mm 0 W/m2
05:00 -9.7 °C -14.7 °C 1032.1 hPa NNW 3.2 km/h 3.2 km/h 67% 0 mm 0 W/m2
05:06 -9.8 °C -14.3 °C 1032.1 hPa NNW 1.6 km/h 3.2 km/h 70% 0 mm 0 W/m2
05:12 -9.8 °C -14.1 °C 1032.1 hPa NNW 3.2 km/h 3.2 km/h 71% 0 mm 0 W/m2
05:18 -9.9 °C -14 °C 1032.1 hPa NNW 1.6 km/h 3.2 km/h 72% 0 mm 0 W/m2
05:23 -9.9 °C -13.7 °C 1032.1 hPa NNW 1.6 km/h 1.6 km/h 74% 0 mm 0 W/m2
05:30 -9.8 °C -13.6 °C 1032.1 hPa Calm     74% 0 mm 0 W/m2
05:36 -9.8 °C -13.4 °C 1032.1 hPa Calm   1.6 km/h 75% 0 mm 0 W/m2
05:42 -9.8 °C -13.3 °C 1032.1 hPa Calm     76% 0 mm 0 W/m2
05:48 -9.8 °C -13.3 °C 1032.1 hPa Calm     76% 0 mm 0 W/m2
05:54 -9.8 °C -13.1 °C 1032.1 hPa Calm     77% 0 mm 0 W/m2
06:00 -9.8 °C -12.9 °C 1032.1 hPa Calm     78% 0 mm 0 W/m2
06:06 -9.8 °C -12.6 °C 1032.4 hPa Calm     80% 0 mm 0 W/m2
06:12 -9.7 °C -12.4 °C 1032.4 hPa Calm     81% 0 mm 0 W/m2
06:18 -9.6 °C -12.1 °C 1032.4 hPa NNW 1.6 km/h 3.2 km/h 82% 0 mm 0 W/m2
06:24 -9.5 °C -12 °C 1032.4 hPa NNW 1.6 km/h 6.4 km/h 82% 0 mm 0 W/m2
06:29 -9.4 °C -11.9 °C 1032.4 hPa NNW 1.6 km/h 3.2 km/h 82% 0 mm 0 W/m2
06:35 -9.4 °C -12.1 °C 1032.4 hPa NW 3.2 km/h 9.7 km/h 81% 0 mm 0 W/m2
06:42 -9.3 °C -12.8 °C 1032.4 hPa NW 6.4 km/h 6.4 km/h 76% 0 mm 0 W/m2
06:48 -9.3 °C -13.4 °C 1032.4 hPa NW 8 km/h 9.7 km/h 72% 0 mm 5 W/m2
06:53 -9.2 °C -13.6 °C 1032.4 hPa NW 8 km/h 9.7 km/h 70% 0 mm 9 W/m2
07:00 -9.1 °C -14.1 °C 1032.7 hPa NNW 8 km/h 8 km/h 67% 0 mm 12 W/m2
07:06 -9.2 °C -14.3 °C 1032.7 hPa NNW 8 km/h 8 km/h 66% 0 mm 23 W/m2
07:12 -9.1 °C -14.5 °C 1032.7 hPa NNW 6.4 km/h 6.4 km/h 65% 0 mm 28 W/m2
07:18 -9.1 °C -14.9 °C 1032.7 hPa NW 8 km/h 11.3 km/h 63% 0 mm 39 W/m2
07:23 -9.1 °C -14.9 °C 1033.1 hPa NW 9.7 km/h 9.7 km/h 63% 0 mm 37 W/m2
07:30 -9.1 °C -14.7 °C 1033.1 hPa North 8 km/h 12.9 km/h 64% 0 mm 33 W/m2
07:35 -9.3 °C -14.8 °C 1033.4 hPa NNW 11.3 km/h 12.9 km/h 64% 0 mm 39 W/m2
07:42 -9.3 °C -14.7 °C 1033.4 hPa NW 9.7 km/h 12.9 km/h 65% 0 mm 49 W/m2
07:48 -9.3 °C -14.9 °C 1033.4 hPa NNW 8 km/h 12.9 km/h 64% 0 mm 60 W/m2
07:53 -9.4 °C -14.8 °C 1033.7 hPa NW 9.7 km/h 16.1 km/h 65% 0 mm 123 W/m2
07:59 -9.6 °C -14.1 °C 1033.7 hPa NNW 11.3 km/h 11.3 km/h 70% 0 mm 69 W/m2
08:05 -9.7 °C -13.6 °C 1034.1 hPa NNW 9.7 km/h 11.3 km/h 73% 0 mm 74 W/m2
08:12 -9.8 °C -13.7 °C 1034.1 hPa NW 9.7 km/h 9.7 km/h 73% 0 mm 83 W/m2
08:18 -9.9 °C -13.9 °C 1034.4 hPa NNW 12.9 km/h 24.1 km/h 73% 0 mm 141 W/m2
08:24 -10 °C -13.6 °C 1034.4 hPa NNW 11.3 km/h 16.1 km/h 75% 0 mm 148 W/m2
08:29 -9.9 °C -13.8 °C 1034.4 hPa WNW 11.3 km/h 17.7 km/h 73% 0 mm 142 W/m2
08:35 -9.9 °C -14.6 °C 1034.4 hPa NW 11.3 km/h 17.7 km/h 69% 0 mm 132 W/m2
08:42 -9.8 °C -14.4 °C 1034.8 hPa North 9.7 km/h 17.7 km/h 69% 0 mm 169 W/m2
08:48 -9.7 °C -15 °C 1035.1 hPa NW 9.7 km/h 17.7 km/h 65% 0 mm 211 W/m2
08:53 -9.3 °C -14.5 °C 1035.1 hPa NW 8 km/h 14.5 km/h 66% 0 mm 355 W/m2
08:59 -9.5 °C -15.4 °C 1035.1 hPa WNW 9.7 km/h 11.3 km/h 62% 0 mm 178 W/m2
09:05 -9.8 °C -15.7 °C 1035.1 hPa NW 9.7 km/h 11.3 km/h 62% 0 mm 181 W/m2
09:12 -9.8 °C -15.4 °C 1035.4 hPa NNW 9.7 km/h 12.9 km/h 64% 0 mm 193 W/m2
09:18 -10.2 °C -15.7 °C 1035.4 hPa NNW 11.3 km/h 16.1 km/h 64% 0 mm 246 W/m2
09:23 -10.2 °C -16.5 °C 1035.4 hPa NW 12.9 km/h 12.9 km/h 60% 0 mm 223 W/m2
09:29 -9.8 °C -16.3 °C 1035.4 hPa NNW 12.9 km/h 12.9 km/h 59% 0 mm 329 W/m2
09:36 -9.9 °C -16.9 °C 1035.4 hPa WNW 11.3 km/h 17.7 km/h 57% 0 mm 272 W/m2
09:42 -9.7 °C -16.7 °C 1035.8 hPa NNW 9.7 km/h 14.5 km/h 57% 0 mm 494 W/m2
09:48 -9.6 °C -16.8 °C 1035.8 hPa NNW 9.7 km/h 17.7 km/h 56% 0 mm 538 W/m2
09:53 -9.5 °C -17.1 °C 1036.1 hPa North 11.3 km/h 14.5 km/h 54% 0 mm 364 W/m2
10:00 -9.6 °C -17.2 °C 1036.1 hPa NW 9.7 km/h 9.7 km/h 54% 0 mm 348 W/m2
10:05 -9.8 °C -16.8 °C 1036.1 hPa NNW 9.7 km/h 9.7 km/h 57% 0 mm 285 W/m2
10:12 -9.9 °C -17 °C 1036.5 hPa North 8 km/h 11.3 km/h 56% 0 mm 146 W/m2
10:18 -9.7 °C -17.5 °C 1036.5 hPa NNW 9.7 km/h 12.9 km/h 53% 0 mm 684 W/m2
10:24 -9.2 °C -16.8 °C 1036.5 hPa NW 9.7 km/h 16.1 km/h 54% 0 mm 731 W/m2
10:29 -9.4 °C -16.6 °C 1036.5 hPa North 8 km/h 9.7 km/h 56% 0 mm 227 W/m2
10:35 -9.2 °C -15.3 °C 1036.5 hPa NW 8 km/h 11.3 km/h 61% 0 mm 752 W/m2
10:42 -9.8 °C -16.6 °C 1036.8 hPa NNW 11.3 km/h 11.3 km/h 58% 0 mm 288 W/m2
10:48 -9.9 °C -16.4 °C 1036.8 hPa NW 12.9 km/h 14.5 km/h 59% 0 mm 496 W/m2
10:53 -9.9 °C -16.2 °C 1037.1 hPa NW 9.7 km/h 14.5 km/h 60% 0 mm 225 W/m2
10:59 -9.4 °C -16.2 °C 1037.1 hPa North 8 km/h 12.9 km/h 58% 0 mm 749 W/m2
11:05 -9.3 °C -16.5 °C 1037.1 hPa NNW 11.3 km/h 16.1 km/h 56% 0 mm 721 W/m2
11:12 -9.9 °C -16.6 °C 1037.1 hPa NW 11.3 km/h 11.3 km/h 58% 0 mm 487 W/m2
11:18 -9.3 °C -15.6 °C 1037.1 hPa West 8 km/h 11.3 km/h 60% 0 mm 339 W/m2
11:23 -9.1 °C -15.3 °C 1037.1 hPa NW 8 km/h 9.7 km/h 61% 0 mm 343 W/m2
11:29 -9.4 °C -16 °C 1037.1 hPa NW 8 km/h 12.9 km/h 59% 0 mm 413 W/m2
11:36 -9.7 °C -14.4 °C 1037.5 hPa NW 9.7 km/h 12.9 km/h 68% 0 mm 712 W/m2
11:42 -9.8 °C -14.8 °C 1037.5 hPa North 8 km/h 8 km/h 67% 0 mm 264 W/m2
11:48 -9.9 °C -14.2 °C 1037.5 hPa NW 8 km/h 8 km/h 71% 0 mm 232 W/m2
11:53 -9.6 °C -14.8 °C 1037.5 hPa NW 8 km/h 9.7 km/h 66% 0 mm 779 W/m2
12:00 -9.2 °C -15.3 °C 1037.5 hPa North 8 km/h 8 km/h 61% 0 mm 578 W/m2
12:05 -9.9 °C -15.2 °C 1037.8 hPa NNW 9.7 km/h 17.7 km/h 65% 0 mm 163 W/m2
12:12 -10.3 °C -15.8 °C 1037.8 hPa WNW 11.3 km/h 11.3 km/h 64% 0 mm 283 W/m2
12:18 -9.8 °C -16.2 °C 1037.8 hPa NNW 8 km/h 11.3 km/h 60% 0 mm 513 W/m2
12:23 -9.1 °C -15.4 °C 1037.8 hPa NNE 8 km/h 11.3 km/h 60% 0 mm 290 W/m2
12:30 -9.9 °C -14.9 °C 1037.8 hPa NNW 8 km/h 17.7 km/h 67% 0 mm 756 W/m2
12:35 -9.6 °C -15.3 °C 1037.8 hPa North 11.3 km/h 17.7 km/h 63% 0 mm 721 W/m2
12:42 -9.8 °C -16.6 °C 1037.8 hPa NNW 12.9 km/h 14.5 km/h 58% 0 mm 714 W/m2
12:48 -9.2 °C -15.8 °C 1037.8 hPa NW 9.7 km/h 14.5 km/h 59% 0 mm 663 W/m2
12:54 -9.8 °C -17.1 °C 1037.5 hPa NNE 11.3 km/h 16.1 km/h 55% 0 mm 297 W/m2
13:00 -9.3 °C -15.1 °C 1037.5 hPa WNW 11.3 km/h 11.3 km/h 63% 0 mm 592 W/m2
13:06 -9.3 °C -15.9 °C 1037.8 hPa NW 9.7 km/h 14.5 km/h 59% 0 mm 744 W/m2
13:12 -8.9 °C -15.5 °C 1037.8 hPa NW 9.7 km/h 11.3 km/h 59% 0 mm 793 W/m2
13:18 -9.2 °C -16.2 °C 1037.8 hPa NNW 8 km/h 11.3 km/h 57% 0 mm 243 W/m2
13:23 -9.7 °C -17.3 °C 1037.8 hPa NNW 11.3 km/h 16.1 km/h 54% 0 mm 199 W/m2
13:30 -9.8 °C -16.9 °C 1037.8 hPa NNE 12.9 km/h 12.9 km/h 56% 0 mm 304 W/m2
13:35 -9.8 °C -17.2 °C 1037.8 hPa NNW 11.3 km/h 12.9 km/h 55% 0 mm 225 W/m2
13:42 -9.5 °C -16.9 °C 1037.8 hPa NW 11.3 km/h 11.3 km/h 55% 0 mm 773 W/m2
13:48 -9.3 °C -17.2 °C 1037.8 hPa WNW 9.7 km/h 14.5 km/h 53% 0 mm 766 W/m2
13:54 -9.3 °C -16.7 °C 1037.8 hPa NNW 9.7 km/h 11.3 km/h 55% 0 mm 258 W/m2
13:59 -9.4 °C -16.8 °C 1037.8 hPa NNW 8 km/h 17.7 km/h 55% 0 mm 297 W/m2
14:05 -9.6 °C -16.9 °C 1038.1 hPa NNW 8 km/h 17.7 km/h 55% 0 mm 209 W/m2
14:12 -9.9 °C -17.7 °C 1038.1 hPa NNW 9.7 km/h 9.7 km/h 53% 0 mm 214 W/m2
14:18 -9.3 °C -16.7 °C 1037.8 hPa WNW 8 km/h 11.3 km/h 55% 0 mm 751 W/m2
14:24 -9.3 °C -16.9 °C 1037.8 hPa North 8 km/h 19.3 km/h 54% 0 mm 309 W/m2
14:30 -9.7 °C -17.1 °C 1038.1 hPa NNW 11.3 km/h 17.7 km/h 55% 0 mm 680 W/m2
14:35 -10.2 °C -17.5 °C 1038.1 hPa WNW 11.3 km/h 17.7 km/h 55% 0 mm 120 W/m2
14:42 -10.1 °C -17.4 °C 1038.1 hPa NNW 8 km/h 9.7 km/h 55% 0 mm 102 W/m2
14:48 -9.8 °C -17.3 °C 1038.1 hPa NW 6.4 km/h 9.7 km/h 54% 0 mm 573 W/m2
14:54 -9.5 °C -17.1 °C 1038.1 hPa NNE 8 km/h 20.9 km/h 54% 0 mm 209 W/m2
14:59 -9.4 °C -17.1 °C 1038.1 hPa NW 8 km/h 8 km/h 54% 0 mm 584 W/m2
15:05 -8.9 °C -17.7 °C 1038.1 hPa NW 6.4 km/h 11.3 km/h 49% 0 mm 605 W/m2
15:12 -8.5 °C -17.1 °C 1038.1 hPa NW 8 km/h 8 km/h 50% 0 mm 617 W/m2
15:18 -8.8 °C -16.9 °C 1038.1 hPa NNW 8 km/h 8 km/h 52% 0 mm 457 W/m2
15:23 -9.3 °C -17.1 °C 1038.1 hPa NNW 9.7 km/h 9.7 km/h 53% 0 mm 540 W/m2
15:29 -9.1 °C -17.4 °C 1038.1 hPa NNE 9.7 km/h 12.9 km/h 51% 0 mm 554 W/m2
15:35 -9.1 °C -17.7 °C 1038.1 hPa NNW 11.3 km/h 14.5 km/h 50% 0 mm 454 W/m2
15:42 -9.4 °C -17.9 °C 1038.1 hPa NW 11.3 km/h 11.3 km/h 50% 0 mm 448 W/m2
15:48 -9.2 °C -17.5 °C 1038.5 hPa NW 9.7 km/h 12.9 km/h 51% 0 mm 197 W/m2
15:53 -9.6 °C -18.6 °C 1038.1 hPa NE 8 km/h 16.1 km/h 48% 0 mm 413 W/m2
15:59 -9.4 °C -18.2 °C 1038.5 hPa NNW 9.7 km/h 9.7 km/h 49% 0 mm 429 W/m2
16:06 -9.4 °C -17.9 °C 1038.1 hPa North 9.7 km/h 14.5 km/h 50% 0 mm 415 W/m2
16:12 -9.6 °C -18.1 °C 1038.1 hPa North 11.3 km/h 11.3 km/h 50% 0 mm 188 W/m2
16:18 -9 °C -17.6 °C 1038.1 hPa North 8 km/h 11.3 km/h 50% 0 mm 369 W/m2
16:24 -9.2 °C -18.4 °C 1038.5 hPa North 8 km/h 9.7 km/h 47% 0 mm 332 W/m2
16:29 -9.4 °C -18.2 °C 1038.5 hPa NNW 9.7 km/h 14.5 km/h 49% 0 mm 295 W/m2
16:35 -9.7 °C -18.9 °C 1038.5 hPa NNE 9.7 km/h 14.5 km/h 47% 0 mm 232 W/m2
16:42 -9.9 °C -18.4 °C 1038.5 hPa NNW 9.7 km/h 9.7 km/h 50% 0 mm 232 W/m2
16:48 -9.9 °C -18.7 °C 1038.5 hPa North 8 km/h 12.9 km/h 49% 0 mm 54 W/m2
16:54 -10.2 °C -18.4 °C 1038.5 hPa North 9.7 km/h 9.7 km/h 51% 0 mm 46 W/m2
17:00 -10.3 °C -18.6 °C 1038.8 hPa NNW 9.7 km/h 9.7 km/h 51% 0 mm 39 W/m2
17:05 -10.2 °C -18.2 °C 1038.8 hPa NNW 6.4 km/h 12.9 km/h 52% 0 mm 35 W/m2
17:12 -10.3 °C -18.3 °C 1038.8 hPa NW 6.4 km/h 6.4 km/h 52% 0 mm 32 W/m2
17:18 -10.4 °C -17.9 °C 1038.8 hPa North 6.4 km/h 9.7 km/h 54% 0 mm 26 W/m2
17:23 -10.6 °C -18.3 °C 1038.8 hPa NW 6.4 km/h 6.4 km/h 53% 0 mm 32 W/m2
17:30 -10.6 °C -18.3 °C 1038.8 hPa North 4.8 km/h 9.7 km/h 53% 0 mm 23 W/m2
17:35 -10.6 °C -18.3 °C 1038.8 hPa WNW 6.4 km/h 9.7 km/h 53% 0 mm 14 W/m2
17:42 -10.7 °C -18 °C 1038.8 hPa NW 4.8 km/h 4.8 km/h 55% 0 mm 12 W/m2
17:48 -10.8 °C -17.9 °C 1038.8 hPa North 4.8 km/h 6.4 km/h 56% 0 mm 9 W/m2
17:53 -10.8 °C -17.7 °C 1038.8 hPa NW 4.8 km/h 9.7 km/h 57% 0 mm 7 W/m2
18:00 -10.9 °C -17.9 °C 1038.8 hPa NNW 4.8 km/h 8 km/h 56% 0 mm 5 W/m2
18:06 -10.9 °C -17.8 °C 1038.8 hPa NW 4.8 km/h 8 km/h 57% 0 mm 0 W/m2
18:12 -11 °C -17.8 °C 1038.8 hPa NNW 3.2 km/h 4.8 km/h 57% 0 mm 0 W/m2
18:18 -11 °C -17.8 °C 1038.8 hPa NNW 3.2 km/h 8 km/h 57% 0 mm 0 W/m2
18:23 -11.1 °C -17.7 °C 1038.8 hPa NNW 1.6 km/h 3.2 km/h 58% 0 mm 0 W/m2
18:30 -11.2 °C -17.6 °C 1038.8 hPa Calm     59% 0 mm 0 W/m2
18:35 -11.3 °C -17.5 °C 1038.8 hPa Calm     60% 0 mm 0 W/m2
18:42 -11.4 °C -17.6 °C 1038.8 hPa Calm     60% 0 mm 0 W/m2
18:48 -11.4 °C -17.5 °C 1038.8 hPa Calm     61% 0 mm 0 W/m2
18:53 -11.5 °C -17.6 °C 1038.8 hPa Calm     61% 0 mm 0 W/m2
19:00 -11.6 °C -17.6 °C 1038.8 hPa Calm     61% 0 mm 0 W/m2
19:06 -11.6 °C -17.6 °C 1038.8 hPa Calm     61% 0 mm 0 W/m2
19:12 -11.7 °C -17.7 °C 1038.8 hPa Calm     61% 0 mm 0 W/m2
19:18 -11.8 °C -17.6 °C 1038.8 hPa Calm     62% 0 mm 0 W/m2
19:23 -11.8 °C -17.3 °C 1038.8 hPa Calm     64% 0 mm 0 W/m2
19:30 -11.8 °C -17.3 °C 1038.8 hPa Calm     64% 0 mm 0 W/m2
19:35 -11.9 °C -17.3 °C 1038.8 hPa Calm     64% 0 mm 0 W/m2
19:42 -11.9 °C -17.2 °C 1038.8 hPa Calm     65% 0 mm 0 W/m2
19:48 -11.9 °C -17.2 °C 1038.8 hPa Calm     65% 0 mm 0 W/m2
19:54 -11.9 °C -17 °C 1038.8 hPa Calm     66% 0 mm 0 W/m2
20:00 -12.1 °C -16.8 °C 1038.8 hPa Calm     68% 0 mm 0 W/m2
20:04 -12.2 °C -16.6 °C 1038.8 hPa Calm     70% 0 mm 0 W/m2
20:10 -12.4 °C -16.6 °C 1039.2 hPa Calm     71% 0 mm 0 W/m2
20:15 -12.6 °C -16.6 °C 1039.2 hPa Calm     72% 0 mm 0 W/m2
20:22 -12.6 °C -16.6 °C 1039.2 hPa Calm     72% 0 mm 0 W/m2
20:28 -12.6 °C -16.4 °C 1039.2 hPa Calm     73% 0 mm 0 W/m2
20:33 -12.6 °C -16.4 °C 1039.2 hPa Calm     73% 0 mm 0 W/m2
20:39 -12.7 °C -16.5 °C 1039.2 hPa Calm     73% 0 mm 0 W/m2
20:46 -12.7 °C -16.3 °C 1039.5 hPa Calm     74% 0 mm 0 W/m2
20:52 -12.6 °C -16.1 °C 1039.5 hPa Calm     75% 0 mm 0 W/m2
20:58 -12.6 °C -16.1 °C 1039.5 hPa Calm     75% 0 mm 0 W/m2
21:04 -12.7 °C -16.2 °C 1039.5 hPa Calm     75% 0 mm 0 W/m2
21:09 -12.7 °C -16.2 °C 1039.5 hPa Calm     75% 0 mm 0 W/m2
21:15 -12.7 °C -16.1 °C 1039.5 hPa Calm   1.6 km/h 76% 0 mm 0 W/m2
21:22 -12.7 °C -16 °C 1039.5 hPa Calm     76% 0 mm 0 W/m2
21:28 -12.7 °C -16 °C 1039.5 hPa Calm     76% 0 mm 0 W/m2
21:33 -12.6 °C -15.8 °C 1039.8 hPa Calm     77% 0 mm 0 W/m2
21:39 -12.7 °C -15.9 °C 1039.8 hPa Calm     77% 0 mm 0 W/m2
21:46 -12.8 °C -15.9 °C 1039.8 hPa Calm     77% 0 mm 0 W/m2
21:52 -12.8 °C -16 °C 1039.8 hPa Calm     77% 0 mm 0 W/m2
21:58 -12.8 °C -16 °C 1039.8 hPa Calm     77% 0 mm 0 W/m2
22:04 -12.9 °C -16.1 °C 1039.8 hPa Calm     77% 0 mm 0 W/m2
22:09 -12.9 °C -16.1 °C 1039.8 hPa Calm     77% 0 mm 0 W/m2
22:15 -12.9 °C -16.1 °C 1039.8 hPa Calm     77% 0 mm 0 W/m2
22:22 -12.9 °C -16 °C 1039.8 hPa Calm     78% 0 mm 0 W/m2
22:28 -13.1 °C -16.1 °C 1039.8 hPa Calm     78% 0 mm 0 W/m2
22:34 -13.1 °C -16.2 °C 1039.8 hPa Calm     78% 0 mm 0 W/m2
22:39 -13.1 °C -16 °C 1039.8 hPa Calm     79% 0 mm 0 W/m2
22:45 -13.1 °C -15.9 °C 1039.5 hPa Calm     79% 0 mm 0 W/m2
22:52 -13.1 °C -16.1 °C 1039.5 hPa Calm     78% 0 mm 0 W/m2
22:58 -13.1 °C -16.3 °C 1039.8 hPa Calm     77% 0 mm 0 W/m2
23:04 -13.1 °C -16.4 °C 1039.5 hPa Calm     76% 0 mm 0 W/m2
23:09 -13.2 °C -16.5 °C 1039.5 hPa Calm     76% 0 mm 0 W/m2
23:15 -13.3 °C -16.6 °C 1039.5 hPa Calm     76% 0 mm 0 W/m2
23:22 -13.4 °C -16.7 °C 1039.5 hPa Calm     76% 0 mm 0 W/m2
23:28 -13.5 °C -16.8 °C 1039.8 hPa Calm     76% 0 mm 0 W/m2
23:34 -13.6 °C -16.9 °C 1039.8 hPa Calm     76% 0 mm 0 W/m2
23:39 -13.6 °C -17.1 °C 1039.8 hPa Calm     75% 0 mm 0 W/m2
23:46 -13.6 °C -17.1 °C 1039.8 hPa Calm     75% 0 mm 0 W/m2
23:52 -13.6 °C -17.2 °C 1039.8 hPa Calm     74% 0 mm 0 W/m2
23:58 -13.6 °C -17.4 °C 1039.8 hPa Calm     73% 0 mm 0 W/m2
Country Meadow, Clay, NY, USA
Compliments of Weather Underground - 2 mb